Time;durP1;ratioP1;P1;durP2;ratioP2;P2;SDS_P1;SDS_P2;PMS_P1;PMS_P2;Temp;Humidity;BMP_temperature;BMP_pressure;BME280_temperature;BME280_humidity;BME280_pressure;Samples;Min_cycle;Max_cycle;Signal;HPM_P1;HPM_P2
2021/11/17 02:28:07;;;;;;;7.57;6.88;;;;;;;;;;5071641;28;20973;-69
2021/11/17 02:30:50;;;;;;;7.43;6.73;;;;;;;;;;5071093;28;20382;-70
2021/11/17 02:33:21;;;;;;;7.22;6.50;;;;;;;;;;5078440;28;20413;-70
2021/11/17 02:36:04;;;;;;;7.70;7.00;;;;;;;;;;5068103;28;20396;-70
2021/11/17 02:38:52;;;;;;;8.02;7.22;;;;;;;;;;5073367;28;20390;-70
2021/11/17 02:41:35;;;;;;;7.90;7.07;;;;;;;;;;5063105;28;20398;-70
2021/11/17 02:44:10;;;;;;;7.20;6.50;;;;;;;;;;5068490;28;20751;-70
2021/11/17 02:47:04;;;;;;;7.63;6.78;;;;;;;;;;5043978;28;20384;-69
2021/11/17 02:49:48;;;;;;;7.60;6.90;;;;;;;;;;5065002;28;20422;-70
2021/11/17 02:52:18;;;;;;;7.63;6.93;;;;;;;;;;5073528;28;20400;-69
2021/11/17 02:54:58;;;;;;;7.63;6.82;;;;;;;;;;5061176;28;20404;-69
2021/11/17 02:57:44;;;;;;;7.65;6.85;;;;;;;;;;5057654;28;20400;-69
2021/11/17 03:00:24;;;;;;;7.22;6.53;;;;;;;;;;5057398;28;20544;-69
2021/11/17 03:03:02;;;;;;;7.35;6.53;;;;;;;;;;5038157;28;20403;-69
2021/11/17 03:05:53;;;;;;;7.32;6.63;;;;;;;;;;5054076;28;20857;-70
2021/11/17 03:08:41;;;;;;;6.90;6.20;;;;;;;;;;5068201;28;20839;-70
2021/11/17 03:11:23;;;;;;;7.32;6.63;;;;;;;;;;5072185;28;20401;-69
2021/11/17 03:14:01;;;;;;;7.32;6.63;;;;;;;;;;5061641;28;20997;-69
2021/11/17 03:16:43;;;;;;;7.38;6.68;;;;;;;;;;5053881;28;20822;-69
2021/11/17 03:19:44;;;;;;;7.60;6.75;;;;;;;;;;5066633;28;20429;-69
2021/11/17 03:22:23;;;;;;;7.40;6.70;;;;;;;;;;5059278;28;20874;-69
2021/11/17 03:25:22;;;;;;;6.90;6.30;;;;;;;;;;5053374;28;20406;-70
2021/11/17 03:28:29;;;;;;;7.25;6.55;;;;;;;;;;5063134;28;20402;-69
2021/11/17 03:31:16;;;;;;;7.30;6.53;;;;;;;;;;5045982;28;21463;-69
2021/11/17 03:34:14;;;;;;;6.77;6.17;;;;;;;;;;5070568;28;20480;-70
2021/11/17 03:37:14;;;;;;;7.25;6.30;;;;;;;;;;5066695;28;20439;-69
2021/11/17 03:40:02;;;;;;;7.03;6.20;;;;;;;;;;5080310;28;20752;-69
2021/11/17 03:42:33;;;;;;;7.30;6.60;;;;;;;;;;5051317;28;20461;-69
2021/11/17 03:45:22;;;;;;;7.57;6.82;;;;;;;;;;5068097;28;20927;-70
2021/11/17 03:48:06;;;;;;;7.72;6.88;;;;;;;;;;5063711;28;20867;-69
2021/11/17 03:50:50;;;;;;;7.20;6.28;;;;;;;;;;5073568;28;20402;-69
2021/11/17 03:53:27;;;;;;;6.78;6.18;;;;;;;;;;5065509;28;20406;-69
2021/11/17 03:56:18;;;;;;;7.40;6.57;;;;;;;;;;5063563;28;20877;-69
2021/11/17 03:58:59;;;;;;;7.47;6.75;;;;;;;;;;5054684;28;20404;-69
2021/11/17 04:01:36;;;;;;;7.68;6.88;;;;;;;;;;5066111;28;20410;-69
2021/11/17 04:04:09;;;;;;;7.90;7.10;;;;;;;;;;5059138;28;20408;-69
2021/11/17 04:06:57;;;;;;;7.72;6.80;;;;;;;;;;5067058;28;20388;-69
2021/11/17 04:09:46;;;;;;;7.85;6.85;;;;;;;;;;5048782;28;20465;-70
2021/11/17 04:12:32;;;;;;;7.20;6.50;;;;;;;;;;5068498;28;20696;-69
2021/11/17 04:15:25;;;;;;;7.50;6.80;;;;;;;;;;5068618;28;20420;-70
2021/11/17 04:17:55;;;;;;;7.75;6.85;;;;;;;;;;5041197;28;21018;-70
2021/11/17 04:20:22;;;;;;;7.68;6.80;;;;;;;;;;5066438;28;20394;-69
2021/11/17 04:22:59;;;;;;;7.90;7.10;;;;;;;;;;5053802;28;20391;-69
2021/11/17 04:25:55;;;;;;;7.60;6.80;;;;;;;;;;5058391;28;20397;-70
2021/11/17 04:28:41;;;;;;;8.60;7.23;;;;;;;;;;5080659;28;20381;-70
2021/11/17 04:31:28;;;;;;;11.48;7.80;;;;;;;;;;5065265;28;20423;-70
2021/11/17 04:34:07;;;;;;;8.10;7.30;;;;;;;;;;5079021;28;20494;-70
2021/11/17 04:36:54;;;;;;;8.32;7.28;;;;;;;;;;5054822;28;20473;-70
2021/11/17 04:39:24;;;;;;;8.33;7.53;;;;;;;;;;5066717;28;20393;-69
2021/11/17 04:42:19;;;;;;;8.18;7.28;;;;;;;;;;5073895;28;20408;-68
2021/11/17 04:45:01;;;;;;;7.88;7.00;;;;;;;;;;5066843;28;20408;-69
2021/11/17 04:47:46;;;;;;;8.80;7.10;;;;;;;;;;5081251;28;20417;-69
2021/11/17 04:50:18;;;;;;;9.75;7.90;;;;;;;;;;5061072;28;20398;-69
2021/11/17 04:53:01;;;;;;;8.63;7.70;;;;;;;;;;5065093;28;20392;-70
2021/11/17 04:55:49;;;;;;;7.72;6.93;;;;;;;;;;5058624;28;20395;-69
2021/11/17 04:58:36;;;;;;;9.02;6.82;;;;;;;;;;5074724;28;20421;-69
2021/11/17 05:01:12;;;;;;;8.75;7.65;;;;;;;;;;5056432;28;20411;-70
2021/11/17 05:03:49;;;;;;;8.10;6.97;;;;;;;;;;5072584;28;20422;-69
2021/11/17 05:06:39;;;;;;;8.52;6.97;;;;;;;;;;5070692;28;20487;-69
2021/11/17 05:09:17;;;;;;;8.35;7.00;;;;;;;;;;5060003;28;20405;-69
2021/11/17 05:12:20;;;;;;;9.65;6.70;;;;;;;;;;5066385;28;20423;-70
2021/11/17 05:14:55;;;;;;;8.57;7.13;;;;;;;;;;5063558;28;20395;-70
2021/11/17 05:17:40;;;;;;;8.20;7.32;;;;;;;;;;5073932;28;20419;-69
2021/11/17 05:20:22;;;;;;;8.85;7.60;;;;;;;;;;5069971;28;20398;-69
2021/11/17 05:23:10;;;;;;;8.52;7.13;;;;;;;;;;5068129;28;20436;-69
2021/11/17 05:25:57;;;;;;;8.02;7.07;;;;;;;;;;5077039;28;20849;-69
2021/11/17 05:28:45;;;;;;;8.15;7.18;;;;;;;;;;5068781;28;21058;-70
2021/11/17 05:31:23;;;;;;;8.20;7.22;;;;;;;;;;5080925;28;20387;-69
2021/11/17 05:33:56;;;;;;;8.70;7.80;;;;;;;;;;5069422;28;20408;-70
2021/11/17 05:36:35;;;;;;;8.90;7.35;;;;;;;;;;5082418;28;20887;-69
2021/11/17 05:39:18;;;;;;;8.13;7.00;;;;;;;;;;5063448;28;20401;-69
2021/11/17 05:42:02;;;;;;;8.15;7.35;;;;;;;;;;5080634;28;20483;-69
2021/11/17 05:44:39;;;;;;;8.57;7.65;;;;;;;;;;5069539;28;20406;-69
2021/11/17 05:47:23;;;;;;;9.20;8.07;;;;;;;;;;5065849;28;20397;-69
2021/11/17 05:49:51;;;;;;;;;;;;;;;;;;5073862;28;20408;-69
2021/11/17 05:52:37;;;;;;;9.20;8.00;;;;;;;;;;5071802;28;20404;-69
2021/11/17 05:55:18;;;;;;;10.52;8.30;;;;;;;;;;5071512;28;20745;-69
2021/11/17 05:57:48;;;;;;;9.90;8.52;;;;;;;;;;5068307;28;20406;-69
2021/11/17 06:00:34;;;;;;;9.18;8.20;;;;;;;;;;5064720;28;21111;-69
2021/11/17 06:03:16;;;;;;;9.13;8.02;;;;;;;;;;5064028;28;20434;-69
2021/11/17 06:05:46;;;;;;;9.57;8.20;;;;;;;;;;5069852;28;20395;-69
2021/11/17 06:08:16;;;;;;;9.20;8.10;;;;;;;;;;5071485;28;20376;-69
2021/11/17 06:10:52;;;;;;;9.27;8.23;;;;;;;;;;5080267;28;21077;-68
2021/11/17 06:13:25;;;;;;;10.02;7.97;;;;;;;;;;5067584;28;20407;-68
2021/11/17 06:15:58;;;;;;;9.25;7.68;;;;;;;;;;5062301;28;20402;-70
2021/11/17 06:18:33;;;;;;;8.88;7.72;;;;;;;;;;5059131;28;20399;-68
2021/11/17 06:21:08;;;;;;;8.82;7.53;;;;;;;;;;5065190;28;20390;-68
2021/11/17 06:23:40;;;;;;;10.02;8.43;;;;;;;;;;5048331;28;20420;-68
2021/11/17 06:26:19;;;;;;;9.25;8.10;;;;;;;;;;5051332;28;20406;-68
2021/11/17 06:29:06;;;;;;;9.23;8.05;;;;;;;;;;5050828;28;20399;-68
2021/11/17 06:31:40;;;;;;;9.40;7.70;;;;;;;;;;5071033;28;20524;-68
2021/11/17 06:34:32;;;;;;;9.23;8.20;;;;;;;;;;5051051;28;20396;-68
2021/11/17 06:37:08;;;;;;;8.98;8.00;;;;;;;;;;5060639;28;20438;-68
2021/11/17 06:39:46;;;;;;;9.60;7.70;;;;;;;;;;5069124;28;20409;-68
2021/11/17 06:42:17;;;;;;;9.32;8.07;;;;;;;;;;5066593;28;20399;-68
2021/11/17 06:44:48;;;;;;;9.50;7.90;;;;;;;;;;5056921;28;20402;-68
2021/11/17 06:47:18;;;;;;;8.82;7.90;;;;;;;;;;5072007;28;20491;-68
2021/11/17 06:49:51;;;;;;;8.18;7.20;;;;;;;;;;5064561;28;20386;-69
2021/11/17 06:52:22;;;;;;;9.00;8.00;;;;;;;;;;5078575;28;20471;-68
2021/11/17 06:54:52;;;;;;;8.88;7.63;;;;;;;;;;5040896;28;20421;-69
2021/11/17 06:57:22;;;;;;;8.73;7.55;;;;;;;;;;5073145;28;20412;-68
2021/11/17 06:59:52;;;;;;;8.60;7.70;;;;;;;;;;5061362;28;20424;-68
2021/11/17 07:02:22;;;;;;;10.85;8.07;;;;;;;;;;5084001;28;20411;-67
2021/11/17 07:04:50;;;;;;;14.43;8.35;;;;;;;;;;5061998;28;20390;-69
2021/11/17 07:07:23;;;;;;;22.13;8.40;;;;;;;;;;5063337;28;20386;-73
2021/11/17 07:09:58;;;;;;;15.25;8.73;;;;;;;;;;5058974;28;20434;-73
2021/11/17 07:12:34;;;;;;;13.07;8.15;;;;;;;;;;5061173;28;20396;-71
2021/11/17 07:15:04;;;;;;;14.00;8.50;;;;;;;;;;5062807;28;20404;-71
2021/11/17 07:17:32;;;;;;;14.43;8.43;;;;;;;;;;5064209;28;20402;-72
2021/11/17 07:20:00;;;;;;;13.25;8.40;;;;;;;;;;5045974;28;20400;-75
2021/11/17 07:22:30;;;;;;;11.82;8.35;;;;;;;;;;5072378;28;20500;-75
2021/11/17 07:25:02;;;;;;;11.02;8.30;;;;;;;;;;5052654;28;21163;-73
2021/11/17 07:28:09;;;;;;;13.00;8.60;;;;;;;;;;5064214;28;20535;-72
2021/11/17 07:31:02;;;;;;;9.55;7.93;;;;;;;;;;5068662;28;20366;-71
2021/11/17 07:33:34;;;;;;;12.55;9.25;;;;;;;;;;5050784;28;20425;-71
2021/11/17 07:36:05;;;;;;;9.98;8.65;;;;;;;;;;5071773;28;20458;-75
2021/11/17 07:38:37;;;;;;;11.32;9.00;;;;;;;;;;5056703;28;20402;-75
2021/11/17 07:41:09;;;;;;;9.85;8.57;;;;;;;;;;5071935;28;20414;-76
2021/11/17 07:43:38;;;;;;;11.57;8.77;;;;;;;;;;5071141;28;20389;-70
2021/11/17 07:46:09;;;;;;;11.73;8.50;;;;;;;;;;5071418;28;20402;-68
2021/11/17 07:48:38;;;;;;;10.20;8.68;;;;;;;;;;5065173;28;20425;-67
2021/11/17 07:51:07;;;;;;;10.40;8.23;;;;;;;;;;5053730;28;20430;-68
2021/11/17 07:53:38;;;;;;;10.73;8.57;;;;;;;;;;5065941;28;20406;-67
2021/11/17 07:56:12;;;;;;;9.70;8.00;;;;;;;;;;5068150;28;20388;-68
2021/11/17 07:58:46;;;;;;;11.30;8.40;;;;;;;;;;5054599;28;20912;-72
2021/11/17 08:01:15;;;;;;;10.47;8.10;;;;;;;;;;5060774;28;20404;-72
2021/11/17 08:03:45;;;;;;;9.10;7.47;;;;;;;;;;5046714;28;20388;-73
2021/11/17 08:06:15;;;;;;;9.23;7.57;;;;;;;;;;5061879;28;20872;-74
2021/11/17 08:08:44;;;;;;;10.18;7.45;;;;;;;;;;5062220;28;20384;-71
2021/11/17 08:11:13;;;;;;;9.25;6.95;;;;;;;;;;5058458;28;20405;-73
2021/11/17 08:13:43;;;;;;;9.90;7.60;;;;;;;;;;5047884;28;20404;-71
2021/11/17 08:16:16;;;;;;;12.93;7.70;;;;;;;;;;5042925;28;20394;-72
2021/11/17 08:18:48;;;;;;;8.57;7.15;;;;;;;;;;5066112;28;20382;-72
2021/11/17 08:21:19;;;;;;;8.88;7.25;;;;;;;;;;5059408;28;20386;-72
2021/11/17 08:23:49;;;;;;;10.15;7.07;;;;;;;;;;5066176;28;20501;-72
2021/11/17 08:26:21;;;;;;;8.63;6.40;;;;;;;;;;5059406;28;20434;-72
2021/11/17 08:29:00;;;;;;;9.85;7.30;;;;;;;;;;5047323;28;20488;-72
2021/11/17 08:31:32;;;;;;;7.40;6.35;;;;;;;;;;5061995;28;20879;-72
2021/11/17 08:34:01;;;;;;;8.82;6.82;;;;;;;;;;5038194;28;20380;-71
2021/11/17 08:36:31;;;;;;;7.72;6.47;;;;;;;;;;5062505;28;20404;-71
2021/11/17 08:39:01;;;;;;;7.15;6.22;;;;;;;;;;5048327;28;20409;-70
2021/11/17 08:41:31;;;;;;;7.43;6.63;;;;;;;;;;5064603;28;20433;-71
2021/11/17 08:43:59;;;;;;;7.47;6.70;;;;;;;;;;5067379;28;20393;-72
2021/11/17 08:46:33;;;;;;;8.80;6.60;;;;;;;;;;5069472;28;20406;-73
2021/11/17 08:49:06;;;;;;;7.80;6.50;;;;;;;;;;5038781;28;20419;-70
2021/11/17 08:51:33;;;;;;;8.00;6.72;;;;;;;;;;5065996;28;20393;-71
2021/11/17 08:54:02;;;;;;;7.28;6.50;;;;;;;;;;5068154;28;20397;-71
2021/11/17 08:56:36;;;;;;;7.85;7.05;;;;;;;;;;5050724;28;20843;-71
2021/11/17 08:59:05;;;;;;;6.95;6.00;;;;;;;;;;5046733;28;20395;-73
2021/11/17 09:01:35;;;;;;;8.48;6.97;;;;;;;;;;5044932;28;20411;-69
2021/11/17 09:04:16;;;;;;;7.38;6.45;;;;;;;;;;5051421;28;20411;-68
2021/11/17 09:06:48;;;;;;;7.20;5.87;;;;;;;;;;5042567;28;20434;-69
2021/11/17 09:09:22;;;;;;;7.40;6.55;;;;;;;;;;5050024;28;20418;-71
2021/11/17 09:11:53;;;;;;;7.30;6.57;;;;;;;;;;5048998;28;20425;-70
2021/11/17 09:14:23;;;;;;;8.10;6.13;;;;;;;;;;5045681;28;20428;-71
2021/11/17 09:16:53;;;;;;;6.75;6.05;;;;;;;;;;5046004;28;20414;-71
2021/11/17 09:19:24;;;;;;;8.05;6.00;;;;;;;;;;5028567;28;20406;-73
2021/11/17 09:21:54;;;;;;;6.43;5.80;;;;;;;;;;5054643;28;21227;-71
2021/11/17 09:24:24;;;;;;;6.78;5.93;;;;;;;;;;5037983;28;20407;-74
2021/11/17 09:26:53;;;;;;;7.05;6.20;;;;;;;;;;5037665;28;20405;-73
2021/11/17 09:29:25;;;;;;;7.53;6.45;;;;;;;;;;5023477;28;21119;-73
2021/11/17 09:31:56;;;;;;;10.15;6.88;;;;;;;;;;5022888;28;20394;-73
2021/11/17 09:34:25;;;;;;;6.93;6.20;;;;;;;;;;5062629;28;20388;-74
2021/11/17 09:36:55;;;;;;;7.53;6.60;;;;;;;;;;5058201;28;20394;-71
2021/11/17 09:39:27;;;;;;;7.50;6.47;;;;;;;;;;5050834;28;20406;-69
2021/11/17 09:41:58;;;;;;;6.90;6.07;;;;;;;;;;5045502;28;20518;-72
2021/11/17 09:44:32;;;;;;;7.75;6.15;;;;;;;;;;5046484;28;20410;-70
2021/11/17 09:47:06;;;;;;;7.50;6.03;;;;;;;;;;5025754;28;20382;-73
2021/11/17 09:50:22;;;;;;;7.97;6.30;;;;;;;;;;5028093;28;20392;-75
2021/11/17 09:52:55;;;;;;;6.75;5.93;;;;;;;;;;5059076;28;20410;-70
2021/11/17 09:55:34;;;;;;;6.40;5.75;;;;;;;;;;5048229;28;20783;-70
2021/11/17 09:58:06;;;;;;;6.60;5.53;;;;;;;;;;5040782;28;20385;-70
2021/11/17 10:00:44;;;;;;;7.57;5.53;;;;;;;;;;5030442;28;20408;-70
2021/11/17 10:03:19;;;;;;;5.68;4.68;;;;;;;;;;5035980;28;20494;-69
2021/11/17 10:06:24;;;;;;;6.93;5.07;;;;;;;;;;5045444;28;20465;-71
2021/11/17 10:12:04;;;;;;;6.07;4.78;;;;;;;;;;5027106;28;20417;-69
2021/11/17 10:14:52;;;;;;;4.65;4.22;;;;;;;;;;5029248;28;20410;-70
2021/11/17 10:17:33;;;;;;;5.05;4.55;;;;;;;;;;5033532;28;20403;-72
2021/11/17 10:20:15;;;;;;;4.88;4.00;;;;;;;;;;5047492;28;20394;-73
2021/11/17 10:22:52;;;;;;;6.20;4.28;;;;;;;;;;5038651;28;20757;-73
2021/11/17 10:25:43;;;;;;;4.80;4.30;;;;;;;;;;5035893;28;20931;-72
2021/11/17 10:28:13;;;;;;;5.20;4.30;;;;;;;;;;5046089;28;20811;-71
2021/11/17 10:31:13;;;;;;;4.65;4.22;;;;;;;;;;5042995;28;20415;-71
2021/11/17 10:33:59;;;;;;;4.60;4.20;;;;;;;;;;5034740;28;20461;-72
2021/11/17 10:36:49;;;;;;;4.65;4.20;;;;;;;;;;5046120;28;20403;-71
2021/11/17 10:39:20;;;;;;;5.10;4.43;;;;;;;;;;5040791;28;20415;-74
2021/11/17 10:41:57;;;;;;;4.53;4.13;;;;;;;;;;5025585;28;20395;-71
2021/11/17 10:44:42;;;;;;;5.10;4.32;;;;;;;;;;5047260;28;20414;-72
2021/11/17 10:47:28;;;;;;;5.85;5.03;;;;;;;;;;5042613;28;20388;-73
2021/11/17 10:50:28;;;;;;;5.20;4.70;;;;;;;;;;5025090;28;20492;-74
2021/11/17 10:53:10;;;;;;;6.80;4.50;;;;;;;;;;5044433;28;20933;-73
2021/11/17 10:55:44;;;;;;;6.88;4.60;;;;;;;;;;5055240;28;20860;-76
2021/11/17 10:58:15;;;;;;;4.93;4.38;;;;;;;;;;5025058;28;20418;-77
2021/11/17 11:00:52;;;;;;;4.32;3.92;;;;;;;;;;5070436;28;20520;-78
2021/11/17 11:03:21;;;;;;;4.30;3.90;;;;;;;;;;5065886;28;20404;-78
2021/11/17 11:06:02;;;;;;;6.77;4.60;;;;;;;;;;5102215;27;20399;-73
2021/11/17 11:08:35;;;;;;;4.95;4.10;;;;;;;;;;5084630;28;20388;-74
2021/11/17 11:11:09;;;;;;;4.85;4.35;;;;;;;;;;5071649;28;20895;-76
2021/11/17 11:13:52;;;;;;;4.97;4.13;;;;;;;;;;5082499;28;20412;-75
2021/11/17 11:16:31;;;;;;;4.40;3.77;;;;;;;;;;5101135;28;20395;-73
2021/11/17 11:19:15;;;;;;;4.53;4.07;;;;;;;;;;5064101;28;20848;-73
2021/11/17 11:21:48;;;;;;;4.47;4.03;;;;;;;;;;5081891;28;20422;-74
2021/11/17 11:24:34;;;;;;;4.60;4.20;;;;;;;;;;5083914;28;20448;-73
2021/11/17 11:27:05;;;;;;;4.47;4.07;;;;;;;;;;5081663;28;20665;-73
2021/11/17 11:29:43;;;;;;;4.68;4.28;;;;;;;;;;5082255;28;20441;-74
2021/11/17 11:32:15;;;;;;;5.15;4.40;;;;;;;;;;5069932;28;20868;-73
2021/11/17 11:35:04;;;;;;;4.65;4.25;;;;;;;;;;5077560;28;20394;-74
2021/11/17 11:37:42;;;;;;;4.93;4.40;;;;;;;;;;5058477;28;20408;-74
2021/11/17 11:40:47;;;;;;;4.85;4.30;;;;;;;;;;5062762;28;20390;-73
2021/11/17 11:43:21;;;;;;;6.82;4.78;;;;;;;;;;5084032;28;20389;-74
2021/11/17 11:45:53;;;;;;;5.20;4.70;;;;;;;;;;5067259;28;20848;-74
2021/11/17 11:48:29;;;;;;;5.13;4.10;;;;;;;;;;5078934;28;21098;-76
2021/11/17 11:51:01;;;;;;;4.93;4.20;;;;;;;;;;5078515;28;20400;-71
2021/11/17 11:53:50;;;;;;;5.57;4.47;;;;;;;;;;5081988;28;20461;-72
2021/11/17 11:56:43;;;;;;;5.10;4.28;;;;;;;;;;5087387;28;20386;-74
2021/11/17 11:59:26;;;;;;;4.20;3.80;;;;;;;;;;5081612;28;20408;-72
2021/11/17 12:02:12;;;;;;;5.20;4.60;;;;;;;;;;5081888;28;21296;-74
2021/11/17 12:04:44;;;;;;;5.10;4.60;;;;;;;;;;5079324;28;20941;-74
2021/11/17 12:07:25;;;;;;;5.70;4.18;;;;;;;;;;5088878;28;20399;-72
2021/11/17 12:10:11;;;;;;;4.70;4.30;;;;;;;;;;5048589;28;20397;-72
2021/11/17 12:12:43;;;;;;;4.65;4.22;;;;;;;;;;5090908;28;20400;-73
2021/11/17 12:15:16;;;;;;;4.43;4.03;;;;;;;;;;5082809;28;20427;-75
2021/11/17 12:17:46;;;;;;;5.00;4.50;;;;;;;;;;5093533;28;20811;-72
2021/11/17 12:20:28;;;;;;;4.50;4.10;;;;;;;;;;5063853;28;20400;-73
2021/11/17 12:23:00;;;;;;;4.90;4.40;;;;;;;;;;5079553;28;20400;-73
2021/11/17 12:25:38;;;;;;;5.43;4.70;;;;;;;;;;5063393;28;20416;-73
2021/11/17 12:28:16;;;;;;;5.68;4.95;;;;;;;;;;5085109;28;20477;-73
2021/11/17 12:30:49;;;;;;;6.07;4.80;;;;;;;;;;5079557;28;20396;-73
2021/11/17 12:33:21;;;;;;;5.00;4.50;;;;;;;;;;5083734;28;20396;-70
2021/11/17 12:36:23;;;;;;;5.75;5.15;;;;;;;;;;5081759;28;20409;-72
2021/11/17 12:38:53;;;;;;;6.55;4.93;;;;;;;;;;5091332;28;20783;-72
2021/11/17 12:41:30;;;;;;;5.45;4.55;;;;;;;;;;5059124;28;20413;-71
2021/11/17 12:44:04;;;;;;;5.05;4.50;;;;;;;;;;5075307;28;20409;-70
2021/11/17 12:46:38;;;;;;;6.30;5.10;;;;;;;;;;5082207;28;20450;-70
2021/11/17 12:49:14;;;;;;;5.57;5.07;;;;;;;;;;5087937;28;20806;-68
2021/11/17 12:51:58;;;;;;;6.63;4.85;;;;;;;;;;5067072;28;20394;-71
2021/11/17 12:54:36;;;;;;;5.43;4.93;;;;;;;;;;5064345;28;21103;-70
2021/11/17 12:57:10;;;;;;;7.95;7.10;;;;;;;;;;5076614;28;20392;-70
2021/11/17 12:59:47;;;;;;;8.50;5.70;;;;;;;;;;5079115;28;20423;-72
2021/11/17 13:02:26;;;;;;;8.23;6.18;;;;;;;;;;5061916;28;20417;-71
2021/11/17 13:04:55;;;;;;;7.40;6.28;;;;;;;;;;5089129;28;20419;-69
2021/11/17 13:07:44;;;;;;;7.53;6.30;;;;;;;;;;5082034;28;20861;-68
2021/11/17 13:10:11;;;;;;;;;;;;;;;;;;5089198;28;20392;-68
2021/11/17 13:12:40;;;;;;;;;;;;;;;;;;5079740;28;25073;-69
2021/11/17 13:15:12;;;;;;;9.75;5.95;;;;;;;;;;5078350;28;20384;-69
2021/11/17 13:17:45;;;;;;;7.53;5.60;;;;;;;;;;5086099;28;20404;-70
2021/11/17 13:20:21;;;;;;;7.20;5.60;;;;;;;;;;5080994;28;20383;-72
2021/11/17 13:23:30;;;;;;;9.20;5.90;;;;;;;;;;5083800;28;20549;-70
2021/11/17 13:26:13;;;;;;;6.75;5.72;;;;;;;;;;5084600;28;20494;-69
2021/11/17 13:28:48;;;;;;;7.75;6.20;;;;;;;;;;5080079;28;20388;-71
2021/11/17 13:31:33;;;;;;;7.80;6.40;;;;;;;;;;5084529;28;20844;-71
2021/11/17 13:34:16;;;;;;;7.82;6.25;;;;;;;;;;5081815;28;20884;-71
2021/11/17 13:36:52;;;;;;;7.60;6.05;;;;;;;;;;5098670;28;20420;-70
2021/11/17 13:39:29;;;;;;;8.02;5.88;;;;;;;;;;5068483;28;20395;-72
2021/11/17 13:41:58;;;;;;;7.43;6.28;;;;;;;;;;5097006;28;20923;-72
2021/11/17 13:44:30;;;;;;;7.00;5.93;;;;;;;;;;5088659;28;20801;-71
2021/11/17 13:47:21;;;;;;;8.38;6.22;;;;;;;;;;5096869;28;20404;-72
2021/11/17 13:49:57;;;;;;;8.07;6.20;;;;;;;;;;5082900;28;20404;-72
2021/11/17 13:52:31;;;;;;;6.85;6.13;;;;;;;;;;5071551;28;20394;-71
2021/11/17 13:55:03;;;;;;;7.40;6.13;;;;;;;;;;5081942;28;20407;-71
2021/11/17 13:57:34;;;;;;;7.82;6.15;;;;;;;;;;5088297;28;20419;-69
2021/11/17 14:00:03;;;;;;;6.53;5.82;;;;;;;;;;5081863;28;20969;-71
2021/11/17 14:02:33;;;;;;;7.40;6.05;;;;;;;;;;5094380;27;20411;-70
2021/11/17 14:05:05;;;;;;;9.00;6.40;;;;;;;;;;5085616;28;21032;-70
2021/11/17 14:07:36;;;;;;;7.47;6.53;;;;;;;;;;5093805;28;20401;-71
2021/11/17 14:10:07;;;;;;;7.47;6.32;;;;;;;;;;5091461;28;20396;-71
2021/11/17 14:12:39;;;;;;;8.85;6.25;;;;;;;;;;5095959;28;20463;-71
2021/11/17 14:15:07;;;;;;;6.65;5.93;;;;;;;;;;5083112;28;20495;-71
2021/11/17 14:17:39;;;;;;;7.03;6.28;;;;;;;;;;5079713;28;20386;-72
2021/11/17 14:20:10;;;;;;;8.40;6.43;;;;;;;;;;5097386;28;20947;-70
2021/11/17 14:22:38;;;;;;;7.15;6.03;;;;;;;;;;5092098;28;20487;-69
2021/11/17 14:25:16;;;;;;;7.70;6.90;;;;;;;;;;5067293;28;20402;-69
2021/11/17 14:27:50;;;;;;;9.13;7.55;;;;;;;;;;5084639;28;20396;-69
2021/11/17 14:30:36;;;;;;;9.70;7.60;;;;;;;;;;5078058;28;20400;-69
2021/11/17 14:33:05;;;;;;;9.23;7.57;;;;;;;;;;5085893;28;20396;-69
2021/11/17 14:35:35;;;;;;;9.00;7.70;;;;;;;;;;5079613;28;20411;-66
2021/11/17 14:38:05;;;;;;;9.18;7.70;;;;;;;;;;5088112;28;20434;-66
2021/11/17 14:40:35;;;;;;;7.93;7.07;;;;;;;;;;5064825;28;21215;-68
2021/11/17 14:43:05;;;;;;;8.50;7.55;;;;;;;;;;5081670;28;20413;-69
2021/11/17 14:45:34;;;;;;;8.52;7.60;;;;;;;;;;5068238;28;20408;-64
2021/11/17 14:48:02;;;;;;;10.13;7.40;;;;;;;;;;5082294;28;20382;-63
2021/11/17 14:50:33;;;;;;;11.18;7.65;;;;;;;;;;5083352;28;20473;-66
2021/11/17 14:53:01;;;;;;;10.80;6.95;;;;;;;;;;5056888;28;20404;-69
2021/11/17 14:55:34;;;;;;;8.88;6.70;;;;;;;;;;5087877;28;20805;-71
2021/11/17 14:58:04;;;;;;;8.45;6.80;;;;;;;;;;5085277;28;20404;-71
2021/11/17 15:00:42;;;;;;;9.80;6.77;;;;;;;;;;5072538;28;20972;-70
2021/11/17 15:03:19;;;;;;;9.02;6.43;;;;;;;;;;5080362;28;20403;-70
2021/11/17 15:05:53;;;;;;;9.75;6.97;;;;;;;;;;5094598;28;20479;-71
2021/11/17 15:08:21;;;;;;;7.70;6.68;;;;;;;;;;5068740;28;20851;-70
2021/11/17 15:10:50;;;;;;;8.25;6.70;;;;;;;;;;5075602;28;20416;-72
2021/11/17 15:13:22;;;;;;;8.30;6.60;;;;;;;;;;5084217;28;20398;-70
2021/11/17 15:15:55;;;;;;;8.07;6.32;;;;;;;;;;5081169;28;20416;-70
2021/11/17 15:18:30;;;;;;;7.20;6.50;;;;;;;;;;5080164;28;20407;-71
2021/11/17 15:21:02;;;;;;;7.03;6.15;;;;;;;;;;5079034;28;20396;-71
2021/11/17 15:23:34;;;;;;;8.00;6.50;;;;;;;;;;5078342;28;20409;-72
2021/11/17 15:26:05;;;;;;;7.53;6.00;;;;;;;;;;5066002;28;20392;-71
2021/11/17 15:28:38;;;;;;;8.00;6.32;;;;;;;;;;5081375;28;20405;-71
2021/11/17 15:31:10;;;;;;;7.15;6.40;;;;;;;;;;5084602;28;20392;-70
2021/11/17 15:33:41;;;;;;;7.88;6.75;;;;;;;;;;5065274;28;20400;-71
2021/11/17 15:36:09;;;;;;;7.88;6.57;;;;;;;;;;5068608;28;20388;-71
2021/11/17 15:38:40;;;;;;;7.85;6.68;;;;;;;;;;5063178;28;20419;-73
2021/11/17 15:41:13;;;;;;;7.22;6.43;;;;;;;;;;5082435;28;20400;-70
2021/11/17 15:43:46;;;;;;;7.13;6.30;;;;;;;;;;5066431;28;20407;-70
2021/11/17 15:46:15;;;;;;;7.82;6.40;;;;;;;;;;5067536;28;20401;-70
2021/11/17 15:48:49;;;;;;;8.07;6.45;;;;;;;;;;5083458;28;20400;-69
2021/11/17 15:51:31;;;;;;;8.30;6.43;;;;;;;;;;5087447;28;20481;-71
2021/11/17 15:53:58;;;;;;;8.30;6.70;;;;;;;;;;5087872;28;20404;-72
2021/11/17 15:56:32;;;;;;;8.50;6.97;;;;;;;;;;5072699;28;20781;-72
2021/11/17 15:59:01;;;;;;;9.00;6.70;;;;;;;;;;5078393;28;20796;-70
2021/11/17 16:01:29;;;;;;;7.50;6.20;;;;;;;;;;5065893;28;20446;-71
2021/11/17 16:04:00;;;;;;;9.68;6.80;;;;;;;;;;5082993;28;20404;-73
2021/11/17 16:06:32;;;;;;;6.93;6.22;;;;;;;;;;5083020;28;20384;-72
2021/11/17 16:09:00;;;;;;;6.75;6.10;;;;;;;;;;5071413;28;20415;-73
2021/11/17 16:11:33;;;;;;;6.72;5.85;;;;;;;;;;5068610;28;20409;-70
2021/11/17 16:14:04;;;;;;;6.28;5.65;;;;;;;;;;5090496;28;20404;-70
2021/11/17 16:16:32;;;;;;;6.50;5.73;;;;;;;;;;5085577;28;20395;-71
2021/11/17 16:19:03;;;;;;;7.18;6.10;;;;;;;;;;5084998;28;20413;-74
2021/11/17 16:21:33;;;;;;;7.63;6.82;;;;;;;;;;5065188;28;20396;-68
2021/11/17 16:26:55;;;;;;;8.20;7.00;;;;;;;;;;5078293;28;20409;-68
2021/11/17 16:29:23;;;;;;;7.80;6.93;;;;;;;;;;5085252;28;20392;-68
2021/11/17 16:31:56;;;;;;;7.63;6.82;;;;;;;;;;5084400;28;20400;-68
2021/11/17 16:34:27;;;;;;;7.78;6.97;;;;;;;;;;5064274;28;20400;-68
2021/11/17 16:36:58;;;;;;;7.60;6.70;;;;;;;;;;5079484;28;20761;-68
2021/11/17 16:39:29;;;;;;;7.95;6.63;;;;;;;;;;5091000;28;20829;-68
2021/11/17 16:41:57;;;;;;;8.50;6.65;;;;;;;;;;5082447;28;20491;-68
2021/11/17 16:44:28;;;;;;;7.60;6.80;;;;;;;;;;5098854;28;20395;-68
2021/11/17 16:47:09;;;;;;;8.18;6.72;;;;;;;;;;5084542;28;20927;-68
2021/11/17 16:49:42;;;;;;;7.90;6.22;;;;;;;;;;5050805;28;20404;-68
2021/11/17 16:52:19;;;;;;;8.05;6.40;;;;;;;;;;5064535;28;20396;-68
2021/11/17 16:54:55;;;;;;;8.85;7.13;;;;;;;;;;5095958;28;20415;-68
2021/11/17 16:57:28;;;;;;;7.43;6.00;;;;;;;;;;5079577;28;20565;-68
2021/11/17 16:59:59;;;;;;;11.52;6.47;;;;;;;;;;5091761;28;20501;-68
2021/11/17 17:02:29;;;;;;;7.75;6.32;;;;;;;;;;5071191;28;20399;-68
2021/11/17 17:05:01;;;;;;;7.53;6.10;;;;;;;;;;5076747;28;20417;-68
2021/11/17 17:07:32;;;;;;;6.78;5.85;;;;;;;;;;5082315;28;20413;-68
2021/11/17 17:10:01;;;;;;;6.55;5.82;;;;;;;;;;5089248;28;20411;-68
2021/11/17 17:12:32;;;;;;;6.95;5.82;;;;;;;;;;5086847;28;20400;-68
2021/11/17 17:15:01;;;;;;;6.32;5.70;;;;;;;;;;5081332;28;20390;-68
2021/11/17 17:17:31;;;;;;;5.80;5.20;;;;;;;;;;5081503;28;21256;-68
2021/11/17 17:20:03;;;;;;;6.32;5.32;;;;;;;;;;5075155;28;20976;-68
2021/11/17 17:22:32;;;;;;;5.70;4.80;;;;;;;;;;5085465;28;21020;-68
2021/11/17 17:25:07;;;;;;;5.88;4.82;;;;;;;;;;5067883;28;20866;-68
2021/11/17 17:27:36;;;;;;;6.00;5.10;;;;;;;;;;5066794;28;20396;-68
2021/11/17 17:30:07;;;;;;;5.97;4.90;;;;;;;;;;5065438;28;20403;-69
2021/11/17 17:32:36;;;;;;;8.18;5.15;;;;;;;;;;5067598;28;20396;-68
2021/11/17 17:35:06;;;;;;;10.15;5.10;;;;;;;;;;5080564;28;20400;-67
2021/11/17 17:37:38;;;;;;;9.77;4.93;;;;;;;;;;5084616;28;20407;-68
2021/11/17 17:40:08;;;;;;;8.52;5.07;;;;;;;;;;5085484;28;20513;-68
2021/11/17 17:42:36;;;;;;;14.40;4.80;;;;;;;;;;5077774;28;20734;-67
2021/11/17 17:45:08;;;;;;;12.35;4.78;;;;;;;;;;5078682;28;20396;-67
2021/11/17 17:47:39;;;;;;;9.70;4.97;;;;;;;;;;5078030;28;20888;-67
2021/11/17 17:50:20;;;;;;;8.30;4.57;;;;;;;;;;5075190;28;20394;-67
2021/11/17 17:52:51;;;;;;;6.50;4.70;;;;;;;;;;5061924;28;20410;-67
2021/11/17 17:55:22;;;;;;;8.52;4.35;;;;;;;;;;5076475;28;20884;-67
2021/11/17 17:57:54;;;;;;;7.32;4.45;;;;;;;;;;5076049;28;20452;-67
2021/11/17 18:00:23;;;;;;;6.45;4.22;;;;;;;;;;5070392;28;20430;-67
2021/11/17 18:02:54;;;;;;;6.68;4.32;;;;;;;;;;5074862;28;21047;-67
2021/11/17 18:05:26;;;;;;;5.40;4.18;;;;;;;;;;5058864;28;20417;-67
2021/11/17 18:07:56;;;;;;;7.97;4.25;;;;;;;;;;5068152;28;20397;-67
2021/11/17 18:10:26;;;;;;;8.48;4.75;;;;;;;;;;5059569;28;20425;-66